Time;durP1;ratioP1;P1;durP2;ratioP2;P2;SDS_P1;SDS_P2;PMS_P1;PMS_P2;Temp;Humidity;BMP_temperature;BMP_pressure;BME280_temperature;BME280_humidity;BME280_pressure;Samples;Min_cycle;Max_cycle;Signal;HPM_P1;HPM_P2
2022/12/10 00:02:26;;;;;;;31.57;29.03;;;6.70;31.20;;;;;;5052140;28;20274;-74
2022/12/10 00:04:51;;;;;;;31.40;28.90;;;6.70;31.40;;;;;;5053817;28;20770;-73
2022/12/10 00:07:17;;;;;;;31.67;29.37;;;6.70;31.00;;;;;;5053726;28;20411;-72
2022/12/10 00:09:42;;;;;;;31.10;28.70;;;6.60;31.00;;;;;;5051685;28;20172;-73
2022/12/10 00:12:08;;;;;;;30.07;27.57;;;6.60;31.00;;;;;;5050428;28;20203;-73
2022/12/10 00:14:33;;;;;;;31.20;28.60;;;6.60;31.30;;;;;;5050247;28;20172;-74
2022/12/10 00:16:59;;;;;;;30.73;28.23;;;6.50;30.70;;;;;;5051954;28;20258;-73
2022/12/10 00:19:24;;;;;;;30.47;28.07;;;6.40;32.00;;;;;;5051171;28;20283;-73
2022/12/10 00:21:50;;;;;;;30.67;27.97;;;6.40;31.50;;;;;;5051831;28;20172;-73
2022/12/10 00:24:15;;;;;;;30.90;28.30;;;6.50;31.70;;;;;;5051150;28;20200;-74
2022/12/10 00:26:41;;;;;;;28.80;26.40;;;6.50;30.60;;;;;;5051980;28;20180;-74
2022/12/10 00:29:10;;;;;;;28.97;26.70;;;6.50;30.90;;;;;;5051022;28;20184;-73
2022/12/10 00:31:36;;;;;;;32.20;29.60;;;6.50;31.40;;;;;;5049519;28;20678;-72
2022/12/10 00:34:05;;;;;;;30.20;27.80;;;6.60;31.40;;;;;;5051721;28;20434;-73
2022/12/10 00:36:44;;;;;;;29.23;26.97;;;6.60;31.20;;;;;;5050735;28;20411;-73
2022/12/10 00:39:12;;;;;;;29.83;27.53;;;6.60;30.50;;;;;;5052204;28;20874;-73
2022/12/10 00:41:37;;;;;;;30.80;28.30;;;6.60;30.80;;;;;;5054488;28;20418;-73
2022/12/10 00:44:03;;;;;;;30.27;27.70;;;6.60;30.60;;;;;;5054040;28;20434;-73
2022/12/10 00:46:29;;;;;;;30.70;28.30;;;6.60;31.00;;;;;;5054110;28;20207;-73
2022/12/10 00:48:54;;;;;;;30.90;28.43;;;6.60;31.00;;;;;;5054503;28;20181;-73
2022/12/10 00:51:25;;;;;;;31.17;28.57;;;6.60;31.40;;;;;;5053538;28;20984;-73
2022/12/10 00:53:53;;;;;;;29.93;27.43;;;6.70;31.40;;;;;;5058201;28;20188;-71
2022/12/10 00:56:21;;;;;;;29.17;26.97;;;6.60;31.40;;;;;;5058605;28;20422;-73
2022/12/10 00:58:47;;;;;;;30.20;27.70;;;6.60;31.50;;;;;;5058933;28;20403;-72
2022/12/10 01:01:20;;;;;;;31.33;28.77;;;6.60;31.50;;;;;;5058090;28;20425;-73
2022/12/10 01:03:47;;;;;;;28.87;26.43;;;6.70;31.30;;;;;;5057551;28;20437;-73
2022/12/10 01:06:24;;;;;;;31.03;28.70;;;6.70;30.70;;;;;;5056995;28;20429;-73
2022/12/10 01:08:52;;;;;;;31.37;28.87;;;6.70;30.30;;;;;;5055430;28;20426;-72
2022/12/10 01:11:19;;;;;;;30.60;28.13;;;6.70;30.30;;;;;;5056062;28;20465;-71
2022/12/10 01:13:47;;;;;;;30.13;27.83;;;6.60;30.80;;;;;;5055721;28;20430;-72
2022/12/10 01:16:16;;;;;;;30.40;28.17;;;6.60;31.30;;;;;;5054148;28;20413;-72
2022/12/10 01:18:42;;;;;;;28.90;26.70;;;6.70;31.20;;;;;;5054059;28;20501;-72
2022/12/10 01:21:10;;;;;;;31.00;28.50;;;6.70;31.00;;;;;;5053388;28;20438;-73
2022/12/10 01:23:37;;;;;;;31.10;28.70;;;6.60;31.10;;;;;;5053272;28;20283;-73
2022/12/10 01:26:05;;;;;;;30.00;27.80;;;6.60;31.00;;;;;;5049863;28;20446;-73
2022/12/10 01:28:33;;;;;;;29.67;27.47;;;6.70;30.90;;;;;;5049648;28;20421;-73
2022/12/10 01:31:04;;;;;;;29.70;27.30;;;6.60;30.80;;;;;;5047880;28;20881;-75
2022/12/10 01:33:30;;;;;;;29.23;27.00;;;6.60;30.90;;;;;;5049166;28;20434;-73
2022/12/10 01:36:01;;;;;;;28.47;26.27;;;6.60;31.00;;;;;;5049621;28;20451;-73
2022/12/10 01:38:26;;;;;;;27.80;25.60;;;6.60;30.80;;;;;;5050210;28;20414;-73
2022/12/10 01:40:52;;;;;;;29.10;27.00;;;6.60;30.60;;;;;;5048733;28;20402;-73
2022/12/10 01:43:18;;;;;;;29.30;27.10;;;6.60;30.50;;;;;;5049659;28;20200;-73
2022/12/10 01:45:43;;;;;;;29.70;27.43;;;6.60;30.90;;;;;;5050048;28;20261;-73
2022/12/10 01:48:09;;;;;;;28.47;26.13;;;6.60;31.20;;;;;;5050430;28;20180;-73
2022/12/10 01:50:34;;;;;;;28.80;26.50;;;6.60;31.40;;;;;;5049348;28;20912;-73
2022/12/10 01:53:00;;;;;;;30.23;28.03;;;6.60;30.70;;;;;;5049892;28;20192;-74
2022/12/10 01:55:45;;;;;;;29.13;26.87;;;6.60;30.70;;;;;;5050206;28;20563;-73
2022/12/10 01:58:12;;;;;;;28.47;26.37;;;6.70;30.20;;;;;;5050374;28;20410;-73
2022/12/10 02:00:58;;;;;;;28.80;26.63;;;6.60;30.20;;;;;;5049739;28;20418;-73
2022/12/10 02:03:38;;;;;;;29.20;26.93;;;6.70;30.20;;;;;;5050395;28;20434;-73
2022/12/10 02:06:30;;;;;;;28.00;26.00;;;6.70;29.90;;;;;;5050445;28;20425;-73
2022/12/10 02:09:14;;;;;;;30.47;28.17;;;6.60;30.00;;;;;;5048471;28;20548;-73
2022/12/10 02:11:51;;;;;;;30.83;28.53;;;6.10;31.90;;;;;;5050319;28;20827;-73
2022/12/10 02:14:24;;;;;;;31.10;28.80;;;5.80;33.20;;;;;;5050125;28;20842;-74
2022/12/10 02:17:16;;;;;;;29.27;27.07;;;6.00;33.20;;;;;;5057585;28;20399;-74
2022/12/10 02:19:49;;;;;;;28.73;26.53;;;6.10;32.30;;;;;;5054980;28;20414;-74
2022/12/10 02:22:17;;;;;;;29.13;26.87;;;6.20;31.70;;;;;;5054892;28;20419;-74
2022/12/10 02:24:47;;;;;;;29.33;27.23;;;6.40;31.70;;;;;;5063507;28;20426;-73
2022/12/10 02:27:21;;;;;;;30.93;28.40;;;6.40;30.90;;;;;;5068513;28;20436;-73
2022/12/10 02:29:48;;;;;;;30.63;28.33;;;6.50;30.70;;;;;;5066613;28;20501;-73
2022/12/10 02:32:19;;;;;;;28.33;26.23;;;6.50;31.00;;;;;;5068721;28;20470;-74
2022/12/10 02:34:50;;;;;;;28.00;25.97;;;6.50;31.20;;;;;;5069602;28;20410;-74
2022/12/10 02:37:23;;;;;;;31.97;29.67;;;6.50;31.00;;;;;;5069997;28;20403;-73
2022/12/10 02:39:52;;;;;;;30.83;28.23;;;6.60;31.20;;;;;;5070849;28;20421;-73
2022/12/10 02:42:21;;;;;;;27.07;24.93;;;6.60;30.80;;;;;;5069214;28;20486;-73
2022/12/10 02:44:48;;;;;;;30.33;27.83;;;6.60;31.00;;;;;;5071143;28;20534;-74
2022/12/10 02:47:16;;;;;;;27.93;25.73;;;6.70;30.80;;;;;;5070311;28;20419;-75
2022/12/10 02:49:44;;;;;;;28.17;26.07;;;6.70;30.70;;;;;;5070592;28;20414;-73
2022/12/10 02:52:13;;;;;;;29.20;26.80;;;6.60;30.50;;;;;;5070640;28;20485;-75
2022/12/10 02:54:42;;;;;;;28.93;26.73;;;6.70;30.70;;;;;;5070380;28;20423;-74
2022/12/10 02:57:20;;;;;;;31.17;28.60;;;6.70;30.10;;;;;;5072392;28;20414;-73
2022/12/10 03:00:06;;;;;;;28.00;25.90;;;6.30;30.60;;;;;;5074139;28;20402;-73
2022/12/10 03:02:40;;;;;;;27.77;25.77;;;6.30;31.10;;;;;;5070397;28;20483;-73
2022/12/10 03:05:22;;;;;;;27.73;25.63;;;6.20;30.60;;;;;;5070676;28;20420;-74
2022/12/10 03:08:00;;;;;;;27.77;25.60;;;6.30;30.90;;;;;;5069987;28;20433;-74
2022/12/10 03:10:32;;;;;;;27.33;25.23;;;6.40;30.30;;;;;;5069793;28;20472;-73
2022/12/10 03:13:00;;;;;;;28.90;26.70;;;6.40;30.30;;;;;;5069203;28;20419;-73
2022/12/10 03:15:29;;;;;;;27.73;25.57;;;6.50;29.90;;;;;;5068001;28;20395;-72
2022/12/10 03:17:57;;;;;;;28.30;26.10;;;6.50;29.70;;;;;;5056047;28;20411;-73
2022/12/10 03:20:24;;;;;;;27.10;25.00;;;6.60;29.80;;;;;;5050024;28;20501;-73
2022/12/10 03:22:51;;;;;;;28.87;26.57;;;6.60;29.60;;;;;;5049329;28;20449;-73
2022/12/10 03:25:23;;;;;;;28.43;26.30;;;6.60;29.40;;;;;;5050382;28;20506;-73
2022/12/10 03:27:52;;;;;;;27.40;25.20;;;6.60;29.80;;;;;;5050651;28;20536;-73
2022/12/10 03:30:17;;;;;;;27.90;25.70;;;6.60;29.80;;;;;;5049677;28;20430;-73
2022/12/10 03:32:44;;;;;;;29.30;26.80;;;6.60;29.80;;;;;;5050604;28;20426;-74
2022/12/10 03:35:12;;;;;;;30.10;27.70;;;6.60;29.80;;;;;;5050448;28;20267;-72
2022/12/10 03:37:38;;;;;;;27.43;25.33;;;6.60;29.80;;;;;;5053310;28;20399;-73
2022/12/10 03:40:06;;;;;;;29.40;27.17;;;6.60;29.80;;;;;;5053133;28;20409;-73
2022/12/10 03:42:32;;;;;;;27.70;25.60;;;6.60;29.80;;;;;;5052449;28;21092;-73
2022/12/10 03:44:57;;;;;;;29.27;26.87;;;6.60;29.90;;;;;;5052608;28;20410;-73
2022/12/10 03:47:23;;;;;;;28.33;26.17;;;6.60;29.90;;;;;;5052936;28;20172;-74
2022/12/10 03:49:49;;;;;;;28.33;26.23;;;6.50;29.70;;;;;;5052589;28;20177;-72
2022/12/10 03:52:15;;;;;;;29.93;27.80;;;6.60;29.90;;;;;;5052809;28;20855;-72
2022/12/10 03:54:41;;;;;;;28.30;26.20;;;6.60;29.80;;;;;;5052425;28;20653;-74
2022/12/10 03:57:06;;;;;;;27.83;25.80;;;6.60;29.80;;;;;;5052830;28;20498;-74
2022/12/10 03:59:32;;;;;;;29.07;26.87;;;6.60;29.80;;;;;;5052633;28;20642;-73
2022/12/10 04:01:58;;;;;;;29.23;27.03;;;6.70;29.90;;;;;;5055753;28;20180;-74
2022/12/10 04:04:23;;;;;;;27.93;25.63;;;6.70;29.90;;;;;;5054215;28;20242;-72
2022/12/10 04:06:49;;;;;;;29.37;27.17;;;6.70;29.90;;;;;;5052691;28;20187;-74
2022/12/10 04:09:16;;;;;;;29.00;26.70;;;6.70;29.70;;;;;;5055367;28;20172;-73
2022/12/10 04:11:42;;;;;;;29.90;27.60;;;6.70;29.90;;;;;;5055262;28;20673;-74
2022/12/10 04:16:53;;;;;;;28.50;26.43;;;6.80;29.90;;;;;;5052715;28;20402;-72
2022/12/10 04:19:20;;;;;;;28.20;26.10;;;6.90;29.70;;;;;;5051426;28;20402;-74
2022/12/10 04:27:19;;;;;;;29.67;27.40;;;7.00;29.00;;;;;;5051736;28;20433;-73
2022/12/10 04:29:45;;;;;;;28.77;26.67;;;7.10;28.80;;;;;;5051655;28;20434;-73
2022/12/10 04:32:11;;;;;;;29.50;27.30;;;7.10;28.80;;;;;;5051403;28;20450;-72
2022/12/10 04:34:39;;;;;;;29.07;26.80;;;7.10;28.70;;;;;;5052263;28;20172;-72
2022/12/10 04:37:05;;;;;;;28.83;26.73;;;7.00;28.50;;;;;;5052387;28;20544;-72
2022/12/10 04:39:31;;;;;;;27.93;25.73;;;7.10;28.70;;;;;;5052070;28;20821;-73
2022/12/10 04:41:58;;;;;;;29.23;26.67;;;7.10;28.70;;;;;;5049836;28;20415;-74
2022/12/10 04:44:24;;;;;;;29.00;26.67;;;6.80;28.80;;;;;;5050234;28;20427;-74
2022/12/10 04:46:49;;;;;;;27.97;25.97;;;6.60;29.80;;;;;;5050880;28;20421;-73
2022/12/10 04:49:15;;;;;;;28.43;26.23;;;6.70;29.90;;;;;;5050786;28;20172;-73
2022/12/10 04:51:41;;;;;;;28.77;26.53;;;6.80;29.30;;;;;;5050843;28;20572;-74
2022/12/10 04:54:08;;;;;;;30.63;28.00;;;6.60;29.80;;;;;;5051179;28;20427;-75
2022/12/10 04:56:34;;;;;;;28.47;26.27;;;6.60;29.90;;;;;;5050968;28;20410;-74
2022/12/10 04:59:00;;;;;;;28.60;26.50;;;6.70;29.90;;;;;;5051017;28;20901;-73
2022/12/10 05:01:27;;;;;;;30.07;27.87;;;6.60;29.80;;;;;;5050992;28;20411;-74
2022/12/10 05:03:52;;;;;;;28.13;26.20;;;6.60;29.80;;;;;;5050443;28;20501;-73
2022/12/10 05:06:19;;;;;;;28.03;25.93;;;6.60;29.90;;;;;;5051014;28;20963;-74
2022/12/10 05:08:45;;;;;;;29.23;27.03;;;6.70;29.90;;;;;;5050658;28;20179;-74
2022/12/10 05:11:13;;;;;;;30.90;28.50;;;6.70;29.80;;;;;;5050503;28;20450;-73
2022/12/10 05:13:39;;;;;;;28.63;26.53;;;6.60;29.80;;;;;;5050052;28;20445;-73
2022/12/10 05:16:07;;;;;;;28.20;26.00;;;6.60;29.80;;;;;;5051193;28;20411;-74
2022/12/10 05:18:33;;;;;;;27.87;25.67;;;6.60;29.90;;;;;;5051254;28;20775;-74
2022/12/10 05:21:05;;;;;;;29.27;26.97;;;6.50;29.70;;;;;;5051283;28;20452;-73
2022/12/10 05:23:31;;;;;;;31.63;29.13;;;6.50;29.80;;;;;;5050441;28;20508;-72
2022/12/10 05:26:04;;;;;;;31.83;29.50;;;6.40;29.70;;;;;;5051287;28;20505;-72
2022/12/10 05:28:32;;;;;;;30.50;28.20;;;6.30;29.80;;;;;;5050780;28;20967;-73
2022/12/10 05:30:58;;;;;;;30.70;28.33;;;6.30;30.30;;;;;;5051276;28;20461;-73
2022/12/10 05:33:24;;;;;;;31.10;28.80;;;6.00;30.50;;;;;;5049754;28;20438;-74
2022/12/10 05:35:58;;;;;;;29.60;27.40;;;5.90;31.70;;;;;;5051681;28;20410;-73
2022/12/10 05:38:24;;;;;;;29.60;27.40;;;5.90;31.70;;;;;;5052404;28;20908;-72
2022/12/10 05:40:50;;;;;;;31.47;28.97;;;6.00;31.60;;;;;;5050345;28;20428;-73
2022/12/10 05:43:16;;;;;;;30.57;28.17;;;6.10;31.30;;;;;;5051274;28;20282;-73
2022/12/10 05:45:42;;;;;;;31.77;29.37;;;6.10;31.10;;;;;;5052362;28;20441;-73
2022/12/10 05:48:09;;;;;;;29.07;26.97;;;6.10;30.70;;;;;;5050894;28;20472;-73
2022/12/10 05:50:35;;;;;;;29.97;27.70;;;6.10;30.50;;;;;;5051097;28;20231;-74
2022/12/10 05:53:00;;;;;;;28.30;26.10;;;6.10;30.80;;;;;;5051034;28;20478;-73
2022/12/10 05:55:26;;;;;;;29.27;26.93;;;6.10;30.60;;;;;;5051930;28;20176;-74
2022/12/10 05:57:52;;;;;;;31.47;29.00;;;6.00;31.20;;;;;;5051707;28;20171;-73
2022/12/10 06:00:18;;;;;;;31.00;28.30;;;6.10;31.20;;;;;;5051941;28;20402;-74
2022/12/10 06:02:43;;;;;;;30.90;28.50;;;6.10;31.00;;;;;;5051298;28;20321;-73
2022/12/10 06:05:09;;;;;;;30.03;27.83;;;6.10;30.80;;;;;;5050126;28;20529;-74
2022/12/10 06:07:35;;;;;;;30.33;28.07;;;6.00;31.10;;;;;;5051871;28;20538;-74
2022/12/10 06:10:00;;;;;;;31.47;29.07;;;5.90;31.50;;;;;;5050587;28;20200;-74
2022/12/10 06:12:26;;;;;;;30.70;28.27;;;6.00;31.00;;;;;;5050581;28;20673;-74
2022/12/10 06:14:51;;;;;;;29.53;27.43;;;5.80;31.40;;;;;;5051870;28;20622;-74
2022/12/10 06:17:17;;;;;;;31.90;29.50;;;5.50;32.90;;;;;;5051166;28;20180;-72
2022/12/10 06:19:42;;;;;;;28.83;26.73;;;5.60;33.00;;;;;;5051039;28;20622;-73
2022/12/10 06:22:08;;;;;;;29.73;27.57;;;5.40;33.60;;;;;;5050394;28;20180;-72
2022/12/10 06:24:33;;;;;;;30.90;28.60;;;5.60;34.10;;;;;;5051174;28;20549;-72
2022/12/10 06:26:59;;;;;;;29.13;26.93;;;5.70;32.80;;;;;;5051446;28;20696;-73
2022/12/10 06:29:25;;;;;;;30.47;28.07;;;5.80;31.80;;;;;;5051461;28;20183;-73
2022/12/10 06:31:50;;;;;;;29.43;27.23;;;6.00;31.60;;;;;;5051031;28;20200;-73
2022/12/10 06:34:16;;;;;;;29.27;27.07;;;6.00;31.10;;;;;;5049927;28;20200;-72
2022/12/10 06:36:41;;;;;;;30.40;28.07;;;6.10;31.50;;;;;;5051767;28;20179;-73
2022/12/10 06:39:07;;;;;;;31.57;28.77;;;6.10;30.80;;;;;;5050407;28;20589;-73
2022/12/10 06:41:32;;;;;;;38.23;35.33;;;6.20;30.90;;;;;;5051272;28;20964;-73
2022/12/10 06:43:58;;;;;;;32.27;29.77;;;6.20;30.40;;;;;;5051374;28;20558;-73
2022/12/10 06:46:25;;;;;;;30.80;28.40;;;6.30;30.00;;;;;;5051677;28;20207;-73
2022/12/10 06:48:51;;;;;;;31.27;28.90;;;6.30;29.60;;;;;;5043834;28;20654;-73
2022/12/10 06:51:17;;;;;;;28.60;26.40;;;6.10;30.70;;;;;;5043185;28;20519;-74
2022/12/10 06:53:44;;;;;;;29.43;27.23;;;6.10;31.20;;;;;;5040253;28;20566;-73
2022/12/10 06:56:13;;;;;;;28.37;26.23;;;6.20;30.90;;;;;;5043245;28;20428;-73
2022/12/10 06:58:41;;;;;;;28.13;26.13;;;6.20;30.70;;;;;;5043778;28;20410;-73
2022/12/10 07:01:14;;;;;;;28.23;26.10;;;6.30;30.40;;;;;;5049664;28;20865;-74
2022/12/10 07:03:39;;;;;;;29.00;26.73;;;6.40;29.90;;;;;;5037797;28;20438;-73
2022/12/10 07:06:07;;;;;;;29.87;27.40;;;6.40;29.70;;;;;;5045072;28;20464;-73
2022/12/10 07:08:33;;;;;;;29.50;27.27;;;6.50;29.70;;;;;;5042508;28;20218;-72
2022/12/10 07:10:58;;;;;;;29.83;27.63;;;6.50;29.80;;;;;;5034898;28;20462;-73
2022/12/10 07:13:25;;;;;;;30.70;28.30;;;6.50;29.70;;;;;;5035550;28;20197;-73
2022/12/10 07:15:50;;;;;;;30.90;28.50;;;6.50;29.70;;;;;;5031610;28;20168;-72
2022/12/10 07:18:16;;;;;;;30.13;27.90;;;6.30;29.60;;;;;;5031093;28;20831;-73
2022/12/10 07:20:41;;;;;;;32.77;30.33;;;6.10;30.30;;;;;;5031379;28;20544;-73
2022/12/10 07:23:07;;;;;;;30.70;28.40;;;6.10;30.10;;;;;;5030904;28;20228;-74
2022/12/10 07:25:33;;;;;;;29.23;27.03;;;6.10;29.50;;;;;;5044913;28;20643;-74
2022/12/10 07:27:59;;;;;;;33.50;30.90;;;6.10;30.00;;;;;;5049502;28;20176;-74
2022/12/10 07:30:24;;;;;;;31.37;29.07;;;6.20;30.30;;;;;;5051552;28;20533;-73
2022/12/10 07:32:50;;;;;;;32.53;30.07;;;6.20;29.60;;;;;;5041222;28;20262;-73
2022/12/10 07:35:15;;;;;;;29.40;27.17;;;6.20;29.60;;;;;;5054370;28;20579;-73
2022/12/10 07:37:41;;;;;;;31.00;28.70;;;6.30;29.60;;;;;;5051831;28;20592;-73
2022/12/10 07:40:07;;;;;;;32.77;30.23;;;6.30;29.60;;;;;;5052125;28;20179;-74
2022/12/10 07:42:33;;;;;;;29.73;27.43;;;6.30;29.60;;;;;;5048138;28;20741;-74
2022/12/10 07:44:58;;;;;;;32.07;29.67;;;6.20;29.60;;;;;;5045715;28;20428;-73
2022/12/10 07:47:24;;;;;;;30.87;28.57;;;6.20;30.00;;;;;;5052257;28;20180;-73
2022/12/10 07:49:50;;;;;;;32.47;29.87;;;6.10;29.70;;;;;;5054851;28;20168;-72
2022/12/10 07:52:15;;;;;;;31.80;29.27;;;6.10;29.70;;;;;;5055209;28;20739;-72
2022/12/10 07:54:41;;;;;;;31.80;29.30;;;6.10;29.70;;;;;;5042245;28;20176;-72
2022/12/10 07:57:06;;;;;;;30.97;28.47;;;6.10;29.50;;;;;;5059184;28;20184;-73
2022/12/10 07:59:32;;;;;;;30.40;28.10;;;6.10;29.90;;;;;;5059199;28;20203;-73
2022/12/10 08:01:58;;;;;;;32.70;30.03;;;6.20;29.60;;;;;;5052838;28;20223;-73
2022/12/10 08:04:23;;;;;;;29.20;27.03;;;6.20;29.90;;;;;;5053211;28;20611;-72
2022/12/10 08:06:49;;;;;;;31.10;28.60;;;6.20;30.40;;;;;;5043440;28;20180;-72
2022/12/10 08:09:14;;;;;;;31.40;29.00;;;6.30;30.80;;;;;;5045492;28;20184;-72
2022/12/10 08:11:40;;;;;;;30.50;28.10;;;6.10;30.20;;;;;;5049611;28;20293;-72
2022/12/10 08:14:05;;;;;;;29.83;27.53;;;6.20;30.70;;;;;;5043861;28;20200;-73
2022/12/10 08:16:31;;;;;;;30.20;27.97;;;6.00;30.70;;;;;;5038015;28;20187;-73
2022/12/10 08:18:59;;;;;;;31.00;28.60;;;6.00;30.10;;;;;;5033622;28;20197;-73
2022/12/10 08:21:27;;;;;;;30.27;27.87;;;5.80;30.20;;;;;;5034482;28;20234;-72
2022/12/10 08:23:54;;;;;;;30.77;28.37;;;5.70;31.60;;;;;;5034874;28;20944;-71
2022/12/10 08:26:24;;;;;;;30.67;28.30;;;5.30;32.50;;;;;;5044843;28;20462;-72
2022/12/10 08:28:50;;;;;;;31.37;28.87;;;5.40;32.90;;;;;;5039939;28;20786;-73
2022/12/10 08:31:18;;;;;;;31.37;29.03;;;5.40;33.00;;;;;;5045653;28;20509;-73
2022/12/10 08:33:44;;;;;;;32.00;29.60;;;5.30;33.70;;;;;;5042503;28;20519;-73
2022/12/10 08:36:15;;;;;;;32.37;29.87;;;5.40;34.00;;;;;;5044379;28;20411;-71
2022/12/10 08:38:41;;;;;;;32.13;29.70;;;5.30;32.60;;;;;;5037110;28;20403;-73
2022/12/10 08:41:18;;;;;;;30.97;28.70;;;5.20;35.00;;;;;;5039286;28;20871;-73
2022/12/10 08:43:44;;;;;;;32.23;29.57;;;5.10;34.00;;;;;;5044002;28;20458;-72
2022/12/10 08:46:11;;;;;;;32.67;30.17;;;4.90;34.20;;;;;;5040336;28;20876;-72
2022/12/10 08:48:37;;;;;;;33.47;30.73;;;4.90;34.80;;;;;;5044663;28;20430;-72
2022/12/10 08:51:04;;;;;;;31.67;29.23;;;5.00;34.30;;;;;;5046957;28;20457;-72
2022/12/10 08:53:29;;;;;;;33.77;30.97;;;5.10;34.90;;;;;;5038510;28;20454;-73
2022/12/10 08:55:55;;;;;;;34.07;31.37;;;5.20;33.50;;;;;;5045671;28;20412;-71
2022/12/10 08:58:21;;;;;;;31.90;29.40;;;5.10;33.80;;;;;;5042211;28;20180;-73
2022/12/10 09:00:48;;;;;;;33.13;30.30;;;5.10;34.50;;;;;;5042262;28;20180;-73
2022/12/10 09:03:13;;;;;;;33.37;30.77;;;5.40;33.40;;;;;;5041848;28;20260;-73
2022/12/10 09:05:39;;;;;;;32.30;29.70;;;5.50;32.80;;;;;;5043689;28;20960;-73
2022/12/10 09:08:04;;;;;;;31.47;29.10;;;5.70;32.10;;;;;;5033496;28;20181;-73
2022/12/10 09:10:30;;;;;;;35.03;32.33;;;5.70;30.90;;;;;;5041043;28;20657;-72
2022/12/10 09:12:56;;;;;;;33.70;31.10;;;5.40;32.30;;;;;;5042412;28;20223;-72
2022/12/10 09:15:21;;;;;;;33.00;30.53;;;5.30;33.30;;;;;;5043549;28;20230;-73
2022/12/10 09:17:47;;;;;;;32.07;29.73;;;5.50;32.90;;;;;;5046433;28;20454;-73
2022/12/10 09:20:12;;;;;;;31.73;29.33;;;5.70;31.80;;;;;;5043593;28;20192;-72
2022/12/10 09:22:38;;;;;;;31.30;28.90;;;5.80;31.20;;;;;;5049226;28;20238;-72
2022/12/10 09:25:06;;;;;;;34.27;31.47;;;5.70;31.40;;;;;;5050723;28;20605;-72
2022/12/10 09:27:32;;;;;;;32.90;30.40;;;5.60;32.00;;;;;;5050149;28;20442;-72
2022/12/10 09:29:58;;;;;;;32.10;29.60;;;5.50;32.70;;;;;;5049315;28;20936;-72
2022/12/10 09:32:23;;;;;;;33.00;30.37;;;5.50;32.20;;;;;;5050087;28;20469;-72
2022/12/10 09:34:53;;;;;;;32.97;30.50;;;5.20;32.90;;;;;;5049113;28;20172;-72
2022/12/10 09:37:19;;;;;;;34.87;31.97;;;5.10;33.60;;;;;;5049609;28;20199;-73
2022/12/10 09:39:44;;;;;;;32.63;30.10;;;5.10;33.50;;;;;;5052125;28;20443;-73
2022/12/10 09:42:28;;;;;;;31.43;29.03;;;5.30;33.10;;;;;;5051854;28;20855;-73
2022/12/10 09:45:02;;;;;;;33.57;30.90;;;5.50;32.80;;;;;;5051993;28;20171;-72
2022/12/10 09:47:40;;;;;;;34.17;31.43;;;5.40;32.40;;;;;;5052473;28;20501;-71
2022/12/10 09:50:20;;;;;;;35.10;32.20;;;5.60;32.50;;;;;;5052164;28;20751;-73
2022/12/10 09:52:47;;;;;;;33.27;30.67;;;5.80;31.60;;;;;;5051226;28;20475;-72
2022/12/10 09:55:30;;;;;;;34.17;31.47;;;5.80;31.00;;;;;;5051816;28;20793;-73
2022/12/10 09:57:56;;;;;;;31.97;29.60;;;6.00;30.50;;;;;;5051545;28;20405;-73
2022/12/10 10:00:37;;;;;;;31.20;28.70;;;5.60;30.90;;;;;;5051892;28;20406;-73
2022/12/10 10:03:04;;;;;;;33.30;30.80;;;5.70;31.60;;;;;;5051298;28;20674;-73
2022/12/10 10:05:37;;;;;;;31.30;28.80;;;5.50;32.40;;;;;;5051912;28;20405;-72
2022/12/10 10:08:06;;;;;;;31.77;29.43;;;5.70;31.40;;;;;;5052103;28;20399;-73
2022/12/10 10:10:35;;;;;;;33.90;31.17;;;5.60;31.90;;;;;;5051703;28;20427;-73
2022/12/10 10:13:07;;;;;;;30.67;28.43;;;5.70;31.50;;;;;;5050257;28;20846;-73
2022/12/10 10:15:34;;;;;;;33.40;30.80;;;5.90;31.10;;;;;;5052000;28;20445;-73
2022/12/10 10:18:11;;;;;;;31.37;28.87;;;5.90;30.70;;;;;;5051073;28;20437;-73
2022/12/10 10:20:36;;;;;;;31.20;28.63;;;6.00;30.30;;;;;;5051996;28;20414;-72
2022/12/10 10:23:02;;;;;;;32.10;29.57;;;6.10;30.10;;;;;;5050862;28;20443;-72
2022/12/10 10:25:28;;;;;;;31.30;28.70;;;6.10;29.50;;;;;;5051640;28;20734;-72
2022/12/10 10:27:55;;;;;;;31.13;28.43;;;5.90;30.60;;;;;;5051213;28;20168;-72
2022/12/10 10:30:24;;;;;;;33.03;30.30;;;5.80;30.00;;;;;;5051331;28;20521;-72
2022/12/10 10:32:53;;;;;;;35.40;30.13;;;5.50;31.30;;;;;;5051289;28;20462;-73
2022/12/10 10:35:27;;;;;;;32.77;30.17;;;5.10;32.80;;;;;;5051122;28;20473;-73
2022/12/10 10:38:04;;;;;;;33.13;30.63;;;5.10;33.00;;;;;;5051717;28;20438;-72
2022/12/10 10:40:40;;;;;;;32.50;29.80;;;5.20;32.90;;;;;;5051388;28;20445;-72
2022/12/10 10:43:12;;;;;;;32.17;29.67;;;5.50;32.30;;;;;;5051433;28;20438;-71
2022/12/10 10:45:42;;;;;;;32.60;30.00;;;5.60;30.00;;;;;;5051451;28;20407;-72
2022/12/10 10:48:16;;;;;;;31.57;29.13;;;5.70;29.90;;;;;;5051946;28;20763;-72
2022/12/10 10:50:47;;;;;;;33.73;31.03;;;5.70;30.10;;;;;;5051542;28;20466;-73
2022/12/10 10:53:30;;;;;;;31.27;28.90;;;5.80;30.00;;;;;;5050212;28;20441;-73
2022/12/10 10:56:16;;;;;;;34.30;31.60;;;5.90;29.90;;;;;;5050552;28;20445;-72
2022/12/10 10:58:52;;;;;;;32.37;29.87;;;5.90;30.10;;;;;;5036141;28;20427;-73
2022/12/10 11:01:18;;;;;;;31.90;29.33;;;5.80;30.70;;;;;;5037629;28;20417;-72
2022/12/10 11:03:53;;;;;;;35.03;31.73;;;5.90;30.20;;;;;;5048388;28;20480;-72
2022/12/10 11:06:18;;;;;;;31.70;29.13;;;5.80;30.30;;;;;;5037684;28;20500;-72
2022/12/10 11:08:47;;;;;;;32.30;29.50;;;5.80;31.00;;;;;;5046143;28;20493;-72
2022/12/10 11:11:17;;;;;;;31.80;29.20;;;5.90;30.10;;;;;;5040622;28;20276;-73
2022/12/10 11:13:42;;;;;;;30.70;28.40;;;6.00;29.70;;;;;;5045929;28;20446;-71
2022/12/10 11:16:20;;;;;;;31.23;28.70;;;6.00;29.50;;;;;;5035220;28;20772;-71
2022/12/10 11:19:02;;;;;;;30.70;28.30;;;6.10;29.50;;;;;;5047799;28;20172;-72
2022/12/10 11:21:30;;;;;;;28.63;26.47;;;6.10;29.30;;;;;;5054957;28;20425;-72
2022/12/10 11:23:56;;;;;;;30.13;27.80;;;6.20;29.30;;;;;;5045159;28;20790;-72
2022/12/10 11:26:44;;;;;;;31.63;29.23;;;6.20;29.10;;;;;;5036047;28;20851;-71
2022/12/10 11:29:51;;;;;;;29.93;27.63;;;6.20;29.10;;;;;;5034847;28;20435;-72
2022/12/10 11:32:38;;;;;;;28.43;26.10;;;6.10;29.50;;;;;;5035120;28;20454;-73
2022/12/10 11:35:23;;;;;;;29.10;26.73;;;6.10;29.30;;;;;;5043067;28;21043;-72
2022/12/10 11:38:05;;;;;;;28.80;26.40;;;6.20;29.10;;;;;;5053993;28;20410;-72
2022/12/10 11:40:42;;;;;;;29.77;27.30;;;6.10;29.50;;;;;;5055025;28;20413;-72
2022/12/10 11:43:24;;;;;;;27.80;25.60;;;6.20;28.80;;;;;;5055500;28;20904;-72
2022/12/10 11:46:05;;;;;;;28.83;26.67;;;6.20;28.50;;;;;;5054647;28;20935;-75
2022/12/10 11:48:34;;;;;;;26.27;24.47;;;6.20;28.40;;;;;;5055658;28;20461;-73
2022/12/10 11:51:07;;;;;;;26.30;24.30;;;6.20;28.40;;;;;;5055075;28;20479;-73
2022/12/10 11:53:54;;;;;;;29.03;26.93;;;6.20;28.40;;;;;;5049293;28;20472;-73
2022/12/10 11:56:30;;;;;;;28.53;26.43;;;6.10;28.20;;;;;;5051232;28;20423;-73
2022/12/10 11:59:19;;;;;;;27.10;25.00;;;6.00;28.20;;;;;;5047226;28;20826;-73
2022/12/10 12:02:26;;;;;;;25.97;24.17;;;6.00;28.20;;;;;;5057052;28;20415;-73
2022/12/10 12:05:26;;;;;;;28.73;26.47;;;5.90;28.30;;;;;;5054932;28;20471;-72
2022/12/10 12:08:12;;;;;;;29.50;27.40;;;6.00;28.60;;;;;;5037428;28;20933;-73
2022/12/10 12:10:54;;;;;;;28.23;26.13;;;6.20;27.90;;;;;;5032176;28;20423;-73
2022/12/10 12:13:32;;;;;;;27.93;25.93;;;6.20;27.60;;;;;;5032550;28;20473;-73
2022/12/10 12:16:14;;;;;;;28.73;26.53;;;6.30;27.80;;;;;;5032133;28;20417;-73
2022/12/10 12:18:44;;;;;;;30.43;28.10;;;6.30;27.70;;;;;;5033119;28;20404;-72
2022/12/10 12:21:12;;;;;;;29.17;27.07;;;6.40;27.90;;;;;;5035173;28;20508;-73
2022/12/10 12:23:56;;;;;;;30.33;28.00;;;6.40;28.00;;;;;;5035923;28;20443;-71
2022/12/10 12:26:31;;;;;;;29.80;27.60;;;6.50;27.80;;;;;;5054557;28;20904;-72
2022/12/10 12:29:19;;;;;;;29.40;27.20;;;6.60;27.50;;;;;;5036912;28;20418;-73
2022/12/10 12:32:03;;;;;;;27.90;25.90;;;6.60;27.80;;;;;;5054698;28;20964;-73
2022/12/10 12:34:44;;;;;;;28.27;26.07;;;6.50;27.60;;;;;;5050395;28;20433;-73
2022/12/10 12:37:15;;;;;;;27.93;25.90;;;6.50;27.80;;;;;;5049731;28;20426;-72
2022/12/10 12:40:07;;;;;;;28.70;26.60;;;6.50;27.60;;;;;;5059497;28;20415;-73
2022/12/10 12:43:05;;;;;;;27.63;25.63;;;6.60;26.90;;;;;;5052285;28;20440;-72
2022/12/10 12:45:39;;;;;;;26.87;24.87;;;6.60;27.10;;;;;;5034340;28;20435;-73
2022/12/10 12:48:11;;;;;;;29.13;27.03;;;6.70;26.90;;;;;;5038664;28;20874;-72
2022/12/10 12:50:44;;;;;;;26.30;24.40;;;6.70;27.00;;;;;;5039275;28;20438;-74
2022/12/10 12:53:14;;;;;;;26.80;24.90;;;6.70;27.30;;;;;;5041930;28;20498;-74
2022/12/10 12:55:55;;;;;;;27.60;25.50;;;6.60;27.30;;;;;;5047385;28;20419;-75
2022/12/10 12:58:43;;;;;;;27.40;25.30;;;6.60;27.50;;;;;;5045972;28;20423;-74